sensor_id;sensor_type;location;lat;lon;timestamp;P1;durP1;ratioP1;P2;durP2;ratioP2
14094;SDS011;18096;48.142;16.290;2023-06-10T00:01:12;1.60;;;1.60;;
14094;SDS011;18096;48.142;16.290;2023-06-10T00:03:38;2.97;;;1.67;;
14094;SDS011;18096;48.142;16.290;2023-06-10T00:06:04;2.30;;;1.50;;
14094;SDS011;18096;48.142;16.290;2023-06-10T00:08:30;2.00;;;1.90;;
14094;SDS011;18096;48.142;16.290;2023-06-10T00:10:56;1.83;;;1.73;;
14094;SDS011;18096;48.142;16.290;2023-06-10T00:13:22;1.70;;;1.70;;
14094;SDS011;18096;48.142;16.290;2023-06-10T00:15:47;1.80;;;1.70;;
14094;SDS011;18096;48.142;16.290;2023-06-10T00:18:13;2.87;;;1.97;;
14094;SDS011;18096;48.142;16.290;2023-06-10T00:20:39;2.40;;;2.20;;
14094;SDS011;18096;48.142;16.290;2023-06-10T00:23:05;2.38;;;2.22;;
14094;SDS011;18096;48.142;16.290;2023-06-10T00:25:33;2.10;;;1.90;;
14094;SDS011;18096;48.142;16.290;2023-06-10T00:27:59;2.75;;;2.55;;
14094;SDS011;18096;48.142;16.290;2023-06-10T00:30:24;2.28;;;2.10;;
14094;SDS011;18096;48.142;16.290;2023-06-10T00:32:50;2.93;;;2.30;;
14094;SDS011;18096;48.142;16.290;2023-06-10T00:35:15;1.77;;;1.42;;
14094;SDS011;18096;48.142;16.290;2023-06-10T00:37:41;2.13;;;2.00;;
14094;SDS011;18096;48.142;16.290;2023-06-10T00:40:07;2.20;;;2.10;;
14094;SDS011;18096;48.142;16.290;2023-06-10T00:42:36;2.13;;;2.03;;
14094;SDS011;18096;48.142;16.290;2023-06-10T00:45:02;1.67;;;1.67;;
14094;SDS011;18096;48.142;16.290;2023-06-10T00:47:28;6.13;;;2.10;;
14094;SDS011;18096;48.142;16.290;2023-06-10T00:49:55;2.20;;;2.10;;
14094;SDS011;18096;48.142;16.290;2023-06-10T00:52:21;4.68;;;2.22;;
14094;SDS011;18096;48.142;16.290;2023-06-10T00:54:49;1.83;;;1.73;;
14094;SDS011;18096;48.142;16.290;2023-06-10T00:57:15;3.10;;;1.80;;
14094;SDS011;18096;48.142;16.290;2023-06-10T00:59:41;1.93;;;1.83;;
14094;SDS011;18096;48.142;16.290;2023-06-10T01:02:12;2.10;;;1.90;;
14094;SDS011;18096;48.142;16.290;2023-06-10T01:04:37;2.13;;;2.03;;
14094;SDS011;18096;48.142;16.290;2023-06-10T01:12:36;1.42;;;1.33;;
14094;SDS011;18096;48.142;16.290;2023-06-10T01:15:15;1.60;;;1.50;;
14094;SDS011;18096;48.142;16.290;2023-06-10T01:20:24;1.73;;;1.63;;
14094;SDS011;18096;48.142;16.290;2023-06-10T01:22:53;1.50;;;1.50;;
14094;SDS011;18096;48.142;16.290;2023-06-10T01:25:19;1.50;;;1.40;;
14094;SDS011;18096;48.142;16.290;2023-06-10T01:27:52;2.00;;;1.90;;
14094;SDS011;18096;48.142;16.290;2023-06-10T01:30:22;1.92;;;1.83;;
14094;SDS011;18096;48.142;16.290;2023-06-10T01:32:54;1.70;;;1.50;;
14094;SDS011;18096;48.142;16.290;2023-06-10T01:35:21;2.50;;;1.60;;
14094;SDS011;18096;48.142;16.290;2023-06-10T01:37:51;2.03;;;1.70;;
14094;SDS011;18096;48.142;16.290;2023-06-10T01:40:19;1.70;;;1.60;;
14094;SDS011;18096;48.142;16.290;2023-06-10T01:42:46;1.83;;;1.73;;
14094;SDS011;18096;48.142;16.290;2023-06-10T01:45:11;2.90;;;2.33;;
14094;SDS011;18096;48.142;16.290;2023-06-10T01:47:37;2.35;;;2.10;;
14094;SDS011;18096;48.142;16.290;2023-06-10T01:50:03;3.13;;;2.10;;
14094;SDS011;18096;48.142;16.290;2023-06-10T01:52:29;1.92;;;1.55;;
14094;SDS011;18096;48.142;16.290;2023-06-10T01:54:54;2.33;;;2.20;;
14094;SDS011;18096;48.142;16.290;2023-06-10T01:57:20;3.20;;;2.83;;
14094;SDS011;18096;48.142;16.290;2023-06-10T01:59:45;2.60;;;2.38;;
14094;SDS011;18096;48.142;16.290;2023-06-10T02:02:11;2.37;;;2.10;;
14094;SDS011;18096;48.142;16.290;2023-06-10T02:04:37;2.10;;;2.00;;
14094;SDS011;18096;48.142;16.290;2023-06-10T02:07:03;3.40;;;2.10;;
14094;SDS011;18096;48.142;16.290;2023-06-10T02:09:29;4.47;;;1.88;;
14094;SDS011;18096;48.142;16.290;2023-06-10T02:11:56;2.35;;;2.25;;
14094;SDS011;18096;48.142;16.290;2023-06-10T02:14:22;2.58;;;2.30;;
14094;SDS011;18096;48.142;16.290;2023-06-10T02:16:47;2.50;;;2.30;;
14094;SDS011;18096;48.142;16.290;2023-06-10T02:19:13;2.90;;;2.60;;
14094;SDS011;18096;48.142;16.290;2023-06-10T02:21:39;3.47;;;2.70;;
14094;SDS011;18096;48.142;16.290;2023-06-10T02:24:05;3.17;;;2.88;;
14094;SDS011;18096;48.142;16.290;2023-06-10T02:26:31;3.38;;;3.08;;
14094;SDS011;18096;48.142;16.290;2023-06-10T02:28:56;3.10;;;2.80;;
14094;SDS011;18096;48.142;16.290;2023-06-10T02:31:22;3.88;;;3.38;;
14094;SDS011;18096;48.142;16.290;2023-06-10T02:33:50;3.00;;;2.80;;
14094;SDS011;18096;48.142;16.290;2023-06-10T02:36:15;3.17;;;2.90;;
14094;SDS011;18096;48.142;16.290;2023-06-10T02:38:41;3.15;;;2.95;;
14094;SDS011;18096;48.142;16.290;2023-06-10T02:41:07;2.88;;;2.67;;
14094;SDS011;18096;48.142;16.290;2023-06-10T02:43:33;3.20;;;2.90;;
14094;SDS011;18096;48.142;16.290;2023-06-10T02:45:58;3.75;;;2.95;;
14094;SDS011;18096;48.142;16.290;2023-06-10T02:48:24;5.20;;;3.60;;
14094;SDS011;18096;48.142;16.290;2023-06-10T02:50:50;3.40;;;2.80;;
14094;SDS011;18096;48.142;16.290;2023-06-10T02:53:15;4.50;;;3.20;;
14094;SDS011;18096;48.142;16.290;2023-06-10T02:55:41;3.55;;;3.25;;
14094;SDS011;18096;48.142;16.290;2023-06-10T02:58:07;3.08;;;2.85;;
14094;SDS011;18096;48.142;16.290;2023-06-10T03:00:33;3.97;;;3.20;;
14094;SDS011;18096;48.142;16.290;2023-06-10T03:02:59;4.00;;;3.60;;
14094;SDS011;18096;48.142;16.290;2023-06-10T03:05:27;4.03;;;3.65;;
14094;SDS011;18096;48.142;16.290;2023-06-10T03:07:53;4.90;;;4.00;;
14094;SDS011;18096;48.142;16.290;2023-06-10T03:10:19;5.35;;;3.92;;
14094;SDS011;18096;48.142;16.290;2023-06-10T03:12:44;4.07;;;3.70;;
14094;SDS011;18096;48.142;16.290;2023-06-10T03:15:10;4.35;;;3.97;;
14094;SDS011;18096;48.142;16.290;2023-06-10T03:17:36;3.33;;;3.13;;
14094;SDS011;18096;48.142;16.290;2023-06-10T03:20:03;5.03;;;4.13;;
14094;SDS011;18096;48.142;16.290;2023-06-10T03:22:30;4.10;;;3.80;;
14094;SDS011;18096;48.142;16.290;2023-06-10T03:24:56;4.47;;;3.53;;
14094;SDS011;18096;48.142;16.290;2023-06-10T03:27:22;7.13;;;4.00;;
14094;SDS011;18096;48.142;16.290;2023-06-10T03:29:48;4.60;;;3.50;;
14094;SDS011;18096;48.142;16.290;2023-06-10T03:32:13;5.33;;;3.43;;
14094;SDS011;18096;48.142;16.290;2023-06-10T03:34:40;6.38;;;4.35;;
14094;SDS011;18096;48.142;16.290;2023-06-10T03:37:05;3.90;;;3.60;;
14094;SDS011;18096;48.142;16.290;2023-06-10T03:39:32;4.28;;;3.88;;
14094;SDS011;18096;48.142;16.290;2023-06-10T03:41:57;5.20;;;3.80;;
14094;SDS011;18096;48.142;16.290;2023-06-10T03:44:26;4.57;;;3.20;;
14094;SDS011;18096;48.142;16.290;2023-06-10T03:46:53;4.25;;;3.53;;
14094;SDS011;18096;48.142;16.290;2023-06-10T03:49:19;4.13;;;3.78;;
14094;SDS011;18096;48.142;16.290;2023-06-10T03:51:45;9.02;;;3.90;;
14094;SDS011;18096;48.142;16.290;2023-06-10T03:54:10;5.90;;;4.53;;
14094;SDS011;18096;48.142;16.290;2023-06-10T03:56:36;4.68;;;3.95;;
14094;SDS011;18096;48.142;16.290;2023-06-10T03:59:02;4.23;;;3.83;;
14094;SDS011;18096;48.142;16.290;2023-06-10T04:01:27;5.63;;;4.28;;
14094;SDS011;18096;48.142;16.290;2023-06-10T04:03:53;5.50;;;4.70;;
14094;SDS011;18096;48.142;16.290;2023-06-10T04:06:19;5.22;;;3.70;;
14094;SDS011;18096;48.142;16.290;2023-06-10T04:08:47;7.60;;;4.40;;
14094;SDS011;18096;48.142;16.290;2023-06-10T04:11:13;5.53;;;4.55;;
14094;SDS011;18096;48.142;16.290;2023-06-10T04:13:39;4.95;;;4.45;;
14094;SDS011;18096;48.142;16.290;2023-06-10T04:16:05;4.40;;;4.00;;
14094;SDS011;18096;48.142;16.290;2023-06-10T04:18:30;4.85;;;4.45;;
14094;SDS011;18096;48.142;16.290;2023-06-10T04:20:56;5.10;;;4.70;;
14094;SDS011;18096;48.142;16.290;2023-06-10T04:23:22;5.30;;;4.70;;
14094;SDS011;18096;48.142;16.290;2023-06-10T04:25:47;11.30;;;4.35;;
14094;SDS011;18096;48.142;16.290;2023-06-10T04:28:13;7.27;;;4.67;;
14094;SDS011;18096;48.142;16.290;2023-06-10T04:30:39;6.45;;;4.40;;
14094;SDS011;18096;48.142;16.290;2023-06-10T04:33:04;5.70;;;4.80;;
14094;SDS011;18096;48.142;16.290;2023-06-10T04:35:31;4.90;;;4.35;;
14094;SDS011;18096;48.142;16.290;2023-06-10T04:37:57;5.37;;;4.87;;
14094;SDS011;18096;48.142;16.290;2023-06-10T04:40:23;8.52;;;5.07;;
14094;SDS011;18096;48.142;16.290;2023-06-10T04:42:49;5.80;;;5.00;;
14094;SDS011;18096;48.142;16.290;2023-06-10T04:45:14;6.20;;;5.30;;
14094;SDS011;18096;48.142;16.290;2023-06-10T04:47:40;9.40;;;6.30;;
14094;SDS011;18096;48.142;16.290;2023-06-10T04:50:06;6.85;;;5.30;;
14094;SDS011;18096;48.142;16.290;2023-06-10T04:52:32;10.88;;;6.35;;
14094;SDS011;18096;48.142;16.290;2023-06-10T04:54:58;10.70;;;6.68;;
14094;SDS011;18096;48.142;16.290;2023-06-10T04:57:24;10.55;;;6.40;;
14094;SDS011;18096;48.142;16.290;2023-06-10T04:59:51;8.00;;;6.55;;
14094;SDS011;18096;48.142;16.290;2023-06-10T05:02:17;13.40;;;6.82;;
14094;SDS011;18096;48.142;16.290;2023-06-10T05:04:43;10.47;;;5.77;;
14094;SDS011;18096;48.142;16.290;2023-06-10T05:07:08;9.03;;;6.67;;
14094;SDS011;18096;48.142;16.290;2023-06-10T05:09:34;7.38;;;5.82;;
14094;SDS011;18096;48.142;16.290;2023-06-10T05:12:00;7.20;;;5.90;;
14094;SDS011;18096;48.142;16.290;2023-06-10T05:14:25;10.03;;;5.90;;
14094;SDS011;18096;48.142;16.290;2023-06-10T05:16:51;6.40;;;5.80;;
14094;SDS011;18096;48.142;16.290;2023-06-10T05:19:16;7.95;;;5.30;;
14094;SDS011;18096;48.142;16.290;2023-06-10T05:21:42;6.55;;;5.80;;
14094;SDS011;18096;48.142;16.290;2023-06-10T05:24:09;7.60;;;6.40;;
14094;SDS011;18096;48.142;16.290;2023-06-10T05:26:35;12.55;;;6.45;;
14094;SDS011;18096;48.142;16.290;2023-06-10T05:29:04;8.63;;;6.00;;
14094;SDS011;18096;48.142;16.290;2023-06-10T05:31:30;10.02;;;6.55;;
14094;SDS011;18096;48.142;16.290;2023-06-10T05:33:56;7.95;;;6.40;;
14094;SDS011;18096;48.142;16.290;2023-06-10T05:36:22;8.70;;;7.03;;
14094;SDS011;18096;48.142;16.290;2023-06-10T05:38:50;14.00;;;8.32;;
14094;SDS011;18096;48.142;16.290;2023-06-10T05:41:15;12.57;;;7.40;;
14094;SDS011;18096;48.142;16.290;2023-06-10T05:43:41;14.37;;;7.97;;
14094;SDS011;18096;48.142;16.290;2023-06-10T05:46:07;12.80;;;7.75;;
14094;SDS011;18096;48.142;16.290;2023-06-10T05:48:33;10.60;;;7.50;;
14094;SDS011;18096;48.142;16.290;2023-06-10T05:50:58;10.40;;;6.97;;
14094;SDS011;18096;48.142;16.290;2023-06-10T05:53:24;11.10;;;7.80;;
14094;SDS011;18096;48.142;16.290;2023-06-10T05:55:50;12.10;;;8.27;;
14094;SDS011;18096;48.142;16.290;2023-06-10T05:58:16;10.50;;;8.13;;
14094;SDS011;18096;48.142;16.290;2023-06-10T06:00:42;11.60;;;8.25;;
14094;SDS011;18096;48.142;16.290;2023-06-10T06:03:07;12.13;;;7.83;;
14094;SDS011;18096;48.142;16.290;2023-06-10T06:05:34;12.40;;;7.57;;
14094;SDS011;18096;48.142;16.290;2023-06-10T06:08:02;14.40;;;8.70;;
14094;SDS011;18096;48.142;16.290;2023-06-10T06:10:28;13.48;;;8.25;;
14094;SDS011;18096;48.142;16.290;2023-06-10T06:12:54;9.70;;;7.00;;
14094;SDS011;18096;48.142;16.290;2023-06-10T06:15:20;9.20;;;6.87;;
14094;SDS011;18096;48.142;16.290;2023-06-10T06:17:46;10.17;;;7.60;;
14094;SDS011;18096;48.142;16.290;2023-06-10T06:20:11;12.60;;;7.65;;
14094;SDS011;18096;48.142;16.290;2023-06-10T06:22:37;16.17;;;9.73;;
14094;SDS011;18096;48.142;16.290;2023-06-10T06:25:03;11.07;;;7.57;;
14094;SDS011;18096;48.142;16.290;2023-06-10T06:27:29;13.98;;;8.82;;
14094;SDS011;18096;48.142;16.290;2023-06-10T06:29:55;13.13;;;8.50;;
14094;SDS011;18096;48.142;16.290;2023-06-10T06:32:21;14.48;;;8.75;;
14094;SDS011;18096;48.142;16.290;2023-06-10T06:34:47;15.73;;;9.65;;
14094;SDS011;18096;48.142;16.290;2023-06-10T06:37:18;14.40;;;7.78;;
14094;SDS011;18096;48.142;16.290;2023-06-10T06:39:51;15.68;;;7.75;;
14094;SDS011;18096;48.142;16.290;2023-06-10T06:42:18;9.70;;;7.53;;
14094;SDS011;18096;48.142;16.290;2023-06-10T06:44:44;11.57;;;8.18;;
14094;SDS011;18096;48.142;16.290;2023-06-10T06:47:11;11.30;;;7.57;;
14094;SDS011;18096;48.142;16.290;2023-06-10T06:49:37;19.77;;;8.83;;
14094;SDS011;18096;48.142;16.290;2023-06-10T06:52:02;11.02;;;7.55;;
14094;SDS011;18096;48.142;16.290;2023-06-10T06:54:28;9.55;;;7.43;;
14094;SDS011;18096;48.142;16.290;2023-06-10T06:56:54;11.50;;;8.07;;
14094;SDS011;18096;48.142;16.290;2023-06-10T06:59:20;14.30;;;8.40;;
14094;SDS011;18096;48.142;16.290;2023-06-10T07:01:46;10.77;;;8.43;;
14094;SDS011;18096;48.142;16.290;2023-06-10T07:04:14;14.35;;;8.55;;
14094;SDS011;18096;48.142;16.290;2023-06-10T07:06:40;15.18;;;9.25;;
14094;SDS011;18096;48.142;16.290;2023-06-10T07:09:07;16.35;;;8.40;;
14094;SDS011;18096;48.142;16.290;2023-06-10T07:11:33;18.98;;;9.20;;
14094;SDS011;18096;48.142;16.290;2023-06-10T07:13:59;21.90;;;11.07;;
14094;SDS011;18096;48.142;16.290;2023-06-10T07:16:24;21.38;;;9.85;;
14094;SDS011;18096;48.142;16.290;2023-06-10T07:18:50;20.80;;;9.17;;
14094;SDS011;18096;48.142;16.290;2023-06-10T07:21:17;15.93;;;9.48;;
14094;SDS011;18096;48.142;16.290;2023-06-10T07:23:43;15.50;;;9.87;;
14094;SDS011;18096;48.142;16.290;2023-06-10T07:26:09;17.85;;;10.00;;
14094;SDS011;18096;48.142;16.290;2023-06-10T07:28:36;16.00;;;9.52;;
14094;SDS011;18096;48.142;16.290;2023-06-10T07:31:02;24.33;;;9.95;;
14094;SDS011;18096;48.142;16.290;2023-06-10T07:33:28;12.33;;;8.40;;
14094;SDS011;18096;48.142;16.290;2023-06-10T07:35:54;15.02;;;9.15;;
14094;SDS011;18096;48.142;16.290;2023-06-10T07:38:20;16.23;;;9.52;;
14094;SDS011;18096;48.142;16.290;2023-06-10T07:40:45;15.07;;;8.80;;
14094;SDS011;18096;48.142;16.290;2023-06-10T07:43:11;13.60;;;8.88;;
14094;SDS011;18096;48.142;16.290;2023-06-10T07:45:36;12.13;;;8.63;;
14094;SDS011;18096;48.142;16.290;2023-06-10T07:48:04;22.10;;;9.55;;
14094;SDS011;18096;48.142;16.290;2023-06-10T07:50:30;14.37;;;8.70;;
14094;SDS011;18096;48.142;16.290;2023-06-10T07:52:55;12.15;;;8.60;;
14094;SDS011;18096;48.142;16.290;2023-06-10T07:55:21;12.03;;;8.00;;
14094;SDS011;18096;48.142;16.290;2023-06-10T07:57:47;14.73;;;8.55;;
14094;SDS011;18096;48.142;16.290;2023-06-10T08:00:12;13.73;;;8.70;;
14094;SDS011;18096;48.142;16.290;2023-06-10T08:02:38;15.43;;;8.73;;
14094;SDS011;18096;48.142;16.290;2023-06-10T08:05:04;14.98;;;9.45;;
14094;SDS011;18096;48.142;16.290;2023-06-10T08:07:30;18.07;;;8.43;;
14094;SDS011;18096;48.142;16.290;2023-06-10T08:09:56;15.68;;;8.82;;
14094;SDS011;18096;48.142;16.290;2023-06-10T08:12:22;13.83;;;8.60;;
14094;SDS011;18096;48.142;16.290;2023-06-10T08:14:48;14.50;;;8.15;;
14094;SDS011;18096;48.142;16.290;2023-06-10T08:17:13;10.73;;;8.27;;
14094;SDS011;18096;48.142;16.290;2023-06-10T08:19:39;12.40;;;8.15;;
14094;SDS011;18096;48.142;16.290;2023-06-10T08:22:04;15.07;;;8.40;;
14094;SDS011;18096;48.142;16.290;2023-06-10T08:24:30;12.45;;;7.75;;
14094;SDS011;18096;48.142;16.290;2023-06-10T08:26:56;13.43;;;8.17;;
14094;SDS011;18096;48.142;16.290;2023-06-10T08:29:22;12.95;;;8.55;;
14094;SDS011;18096;48.142;16.290;2023-06-10T08:31:48;13.02;;;7.70;;
14094;SDS011;18096;48.142;16.290;2023-06-10T08:34:14;11.02;;;7.95;;
14094;SDS011;18096;48.142;16.290;2023-06-10T08:36:39;11.80;;;8.23;;
14094;SDS011;18096;48.142;16.290;2023-06-10T08:39:05;12.02;;;7.53;;
14094;SDS011;18096;48.142;16.290;2023-06-10T08:41:35;12.20;;;8.60;;
14094;SDS011;18096;48.142;16.290;2023-06-10T08:44:12;11.75;;;7.57;;
14094;SDS011;18096;48.142;16.290;2023-06-10T08:46:46;12.10;;;8.40;;
14094;SDS011;18096;48.142;16.290;2023-06-10T08:49:15;12.25;;;8.18;;
14094;SDS011;18096;48.142;16.290;2023-06-10T08:51:45;16.38;;;8.38;;
14094;SDS011;18096;48.142;16.290;2023-06-10T08:54:20;12.20;;;8.07;;
14094;SDS011;18096;48.142;16.290;2023-06-10T08:56:48;10.93;;;7.32;;
14094;SDS011;18096;48.142;16.290;2023-06-10T08:59:18;14.15;;;8.60;;
14094;SDS011;18096;48.142;16.290;2023-06-10T09:01:44;9.85;;;6.97;;
14094;SDS011;18096;48.142;16.290;2023-06-10T09:04:11;9.20;;;7.10;;
14094;SDS011;18096;48.142;16.290;2023-06-10T09:06:38;11.50;;;7.40;;
14094;SDS011;18096;48.142;16.290;2023-06-10T09:09:05;9.32;;;7.05;;
14094;SDS011;18096;48.142;16.290;2023-06-10T09:11:32;9.88;;;7.70;;
14094;SDS011;18096;48.142;16.290;2023-06-10T09:13:58;10.60;;;7.35;;
14094;SDS011;18096;48.142;16.290;2023-06-10T09:16:24;11.90;;;7.20;;
14094;SDS011;18096;48.142;16.290;2023-06-10T09:18:50;7.97;;;7.15;;
14094;SDS011;18096;48.142;16.290;2023-06-10T09:21:20;11.63;;;7.20;;
14094;SDS011;18096;48.142;16.290;2023-06-10T09:23:50;9.70;;;7.63;;
14094;SDS011;18096;48.142;16.290;2023-06-10T09:26:16;9.93;;;6.73;;
14094;SDS011;18096;48.142;16.290;2023-06-10T09:28:48;10.68;;;6.65;;
14094;SDS011;18096;48.142;16.290;2023-06-10T09:31:17;14.23;;;6.35;;
14094;SDS011;18096;48.142;16.290;2023-06-10T09:33:46;8.93;;;6.60;;
14094;SDS011;18096;48.142;16.290;2023-06-10T09:36:21;9.23;;;6.93;;
14094;SDS011;18096;48.142;16.290;2023-06-10T09:38:49;8.20;;;6.55;;
14094;SDS011;18096;48.142;16.290;2023-06-10T09:41:16;10.25;;;7.50;;
14094;SDS011;18096;48.142;16.290;2023-06-10T09:43:43;11.27;;;6.60;;
14094;SDS011;18096;48.142;16.290;2023-06-10T09:46:19;9.95;;;6.35;;
14094;SDS011;18096;48.142;16.290;2023-06-10T09:48:46;8.60;;;5.50;;
14094;SDS011;18096;48.142;16.290;2023-06-10T09:51:13;5.72;;;5.13;;
14094;SDS011;18096;48.142;16.290;2023-06-10T09:53:42;8.43;;;5.50;;
14094;SDS011;18096;48.142;16.290;2023-06-10T09:56:07;10.63;;;6.20;;
14094;SDS011;18096;48.142;16.290;2023-06-10T09:58:36;9.55;;;6.55;;
14094;SDS011;18096;48.142;16.290;2023-06-10T10:01:10;8.13;;;5.40;;
14094;SDS011;18096;48.142;16.290;2023-06-10T10:03:47;7.50;;;5.67;;
14094;SDS011;18096;48.142;16.290;2023-06-10T10:06:14;8.18;;;6.70;;
14094;SDS011;18096;48.142;16.290;2023-06-10T10:08:41;7.65;;;5.97;;
14094;SDS011;18096;48.142;16.290;2023-06-10T10:11:06;19.83;;;6.40;;
14094;SDS011;18096;48.142;16.290;2023-06-10T10:13:33;7.47;;;6.68;;
14094;SDS011;18096;48.142;16.290;2023-06-10T10:16:01;6.72;;;5.57;;
14094;SDS011;18096;48.142;16.290;2023-06-10T10:18:35;6.60;;;5.90;;
14094;SDS011;18096;48.142;16.290;2023-06-10T10:21:06;7.03;;;5.60;;
14094;SDS011;18096;48.142;16.290;2023-06-10T10:24:20;8.10;;;5.60;;
14094;SDS011;18096;48.142;16.290;2023-06-10T10:26:35;7.20;;;5.30;;
14094;SDS011;18096;48.142;16.290;2023-06-10T10:31:37;7.60;;;6.00;;
14094;SDS011;18096;48.142;16.290;2023-06-10T10:34:09;6.40;;;5.80;;
14094;SDS011;18096;48.142;16.290;2023-06-10T10:36:40;6.57;;;5.30;;
14094;SDS011;18096;48.142;16.290;2023-06-10T10:39:06;10.50;;;5.87;;
14094;SDS011;18096;48.142;16.290;2023-06-10T10:41:33;6.90;;;5.55;;
14094;SDS011;18096;48.142;16.290;2023-06-10T10:44:01;6.90;;;5.57;;
14094;SDS011;18096;48.142;16.290;2023-06-10T10:46:30;5.50;;;5.00;;
14094;SDS011;18096;48.142;16.290;2023-06-10T10:49:06;6.50;;;4.93;;
14094;SDS011;18096;48.142;16.290;2023-06-10T10:51:36;7.88;;;5.72;;
14094;SDS011;18096;48.142;16.290;2023-06-10T10:54:14;7.97;;;5.72;;
14094;SDS011;18096;48.142;16.290;2023-06-10T10:56:45;5.27;;;4.77;;
14094;SDS011;18096;48.142;16.290;2023-06-10T11:02:34;9.38;;;5.68;;
14094;SDS011;18096;48.142;16.290;2023-06-10T11:05:02;8.57;;;5.70;;
14094;SDS011;18096;48.142;16.290;2023-06-10T11:07:29;6.00;;;5.40;;
14094;SDS011;18096;48.142;16.290;2023-06-10T11:10:00;8.43;;;5.35;;
14094;SDS011;18096;48.142;16.290;2023-06-10T11:15:13;6.38;;;5.10;;
14094;SDS011;18096;48.142;16.290;2023-06-10T11:33:54;8.15;;;5.45;;
14094;SDS011;18096;48.142;16.290;2023-06-10T11:36:21;5.07;;;4.57;;
14094;SDS011;18096;48.142;16.290;2023-06-10T11:38:48;5.50;;;4.90;;
14094;SDS011;18096;48.142;16.290;2023-06-10T11:41:14;8.60;;;4.55;;
14094;SDS011;18096;48.142;16.290;2023-06-10T11:43:43;7.47;;;4.63;;
14094;SDS011;18096;48.142;16.290;2023-06-10T11:46:13;5.10;;;4.60;;
14094;SDS011;18096;48.142;16.290;2023-06-10T11:48:39;5.50;;;5.00;;
14094;SDS011;18096;48.142;16.290;2023-06-10T11:51:14;8.65;;;5.68;;
14094;SDS011;18096;48.142;16.290;2023-06-10T11:53:40;5.30;;;4.80;;
14094;SDS011;18096;48.142;16.290;2023-06-10T11:56:05;5.97;;;4.57;;
14094;SDS011;18096;48.142;16.290;2023-06-10T11:58:31;6.03;;;4.93;;
14094;SDS011;18096;48.142;16.290;2023-06-10T12:00:56;7.03;;;5.90;;
14094;SDS011;18096;48.142;16.290;2023-06-10T12:03:23;7.32;;;5.28;;
14094;SDS011;18096;48.142;16.290;2023-06-10T12:05:55;5.88;;;5.15;;
14094;SDS011;18096;48.142;16.290;2023-06-10T12:08:21;10.10;;;5.53;;
14094;SDS011;18096;48.142;16.290;2023-06-10T12:10:47;6.75;;;5.32;;
14094;SDS011;18096;48.142;16.290;2023-06-10T12:13:13;6.60;;;5.28;;
14094;SDS011;18096;48.142;16.290;2023-06-10T12:15:39;5.82;;;5.10;;
14094;SDS011;18096;48.142;16.290;2023-06-10T12:18:05;7.68;;;5.80;;
14094;SDS011;18096;48.142;16.290;2023-06-10T12:20:31;6.40;;;4.80;;
14094;SDS011;18096;48.142;16.290;2023-06-10T12:22:59;6.27;;;5.30;;
14094;SDS011;18096;48.142;16.290;2023-06-10T12:25:26;4.50;;;4.10;;
14094;SDS011;18096;48.142;16.290;2023-06-10T12:27:54;7.95;;;5.68;;
14094;SDS011;18096;48.142;16.290;2023-06-10T12:30:22;5.90;;;4.90;;
14094;SDS011;18096;48.142;16.290;2023-06-10T12:32:50;4.95;;;4.45;;
14094;SDS011;18096;48.142;16.290;2023-06-10T12:35:18;5.47;;;4.90;;
14094;SDS011;18096;48.142;16.290;2023-06-10T12:40:37;5.35;;;4.82;;
14094;SDS011;18096;48.142;16.290;2023-06-10T12:43:05;5.50;;;4.70;;
14094;SDS011;18096;48.142;16.290;2023-06-10T12:45:35;8.32;;;4.97;;
14094;SDS011;18096;48.142;16.290;2023-06-10T12:48:10;7.07;;;4.40;;
14094;SDS011;18096;48.142;16.290;2023-06-10T12:50:42;4.90;;;4.40;;
14094;SDS011;18096;48.142;16.290;2023-06-10T12:53:09;5.20;;;4.70;;
14094;SDS011;18096;48.142;16.290;2023-06-10T12:55:38;9.10;;;5.03;;
14094;SDS011;18096;48.142;16.290;2023-06-10T12:58:04;7.47;;;5.32;;
14094;SDS011;18096;48.142;16.290;2023-06-10T13:00:30;5.78;;;4.20;;
14094;SDS011;18096;48.142;16.290;2023-06-10T13:02:57;5.00;;;4.20;;
14094;SDS011;18096;48.142;16.290;2023-06-10T13:05:25;6.75;;;4.35;;
14094;SDS011;18096;48.142;16.290;2023-06-10T13:07:50;4.50;;;4.10;;
14094;SDS011;18096;48.142;16.290;2023-06-10T13:10:16;15.88;;;4.88;;
14094;SDS011;18096;48.142;16.290;2023-06-10T13:12:42;10.82;;;5.20;;
14094;SDS011;18096;48.142;16.290;2023-06-10T13:15:08;8.90;;;5.63;;
14094;SDS011;18096;48.142;16.290;2023-06-10T13:17:34;8.80;;;6.38;;
14094;SDS011;18096;48.142;16.290;2023-06-10T13:20:02;16.20;;;5.85;;
14094;SDS011;18096;48.142;16.290;2023-06-10T13:22:29;6.75;;;5.63;;
14094;SDS011;18096;48.142;16.290;2023-06-10T13:24:57;9.65;;;5.97;;
14094;SDS011;18096;48.142;16.290;2023-06-10T13:27:26;7.70;;;5.10;;
14094;SDS011;18096;48.142;16.290;2023-06-10T13:29:52;13.65;;;6.40;;
14094;SDS011;18096;48.142;16.290;2023-06-10T13:32:18;5.90;;;5.20;;
14094;SDS011;18096;48.142;16.290;2023-06-10T13:34:43;7.33;;;5.80;;
14094;SDS011;18096;48.142;16.290;2023-06-10T13:37:09;7.47;;;5.50;;
14094;SDS011;18096;48.142;16.290;2023-06-10T13:39:35;7.53;;;5.93;;
14094;SDS011;18096;48.142;16.290;2023-06-10T13:42:01;7.93;;;6.28;;
14094;SDS011;18096;48.142;16.290;2023-06-10T13:44:26;7.33;;;5.60;;
14094;SDS011;18096;48.142;16.290;2023-06-10T13:46:55;6.67;;;6.07;;
14094;SDS011;18096;48.142;16.290;2023-06-10T13:49:21;6.95;;;5.80;;
14094;SDS011;18096;48.142;16.290;2023-06-10T13:51:47;8.20;;;5.93;;
14094;SDS011;18096;48.142;16.290;2023-06-10T13:54:13;9.20;;;6.67;;
14094;SDS011;18096;48.142;16.290;2023-06-10T13:56:40;8.07;;;5.70;;
14094;SDS011;18096;48.142;16.290;2023-06-10T13:59:06;5.75;;;5.25;;
14094;SDS011;18096;48.142;16.290;2023-06-10T14:01:32;8.70;;;6.23;;
14094;SDS011;18096;48.142;16.290;2023-06-10T14:03:57;7.82;;;6.32;;
14094;SDS011;18096;48.142;16.290;2023-06-10T14:06:23;8.35;;;6.03;;
14094;SDS011;18096;48.142;16.290;2023-06-10T14:08:49;7.90;;;6.20;;
14094;SDS011;18096;48.142;16.290;2023-06-10T14:11:15;7.78;;;5.78;;
14094;SDS011;18096;48.142;16.290;2023-06-10T14:13:40;6.50;;;5.20;;
14094;SDS011;18096;48.142;16.290;2023-06-10T14:16:06;6.10;;;5.40;;
14094;SDS011;18096;48.142;16.290;2023-06-10T14:18:32;6.00;;;5.23;;
14094;SDS011;18096;48.142;16.290;2023-06-10T14:20:57;6.18;;;5.13;;
14094;SDS011;18096;48.142;16.290;2023-06-10T14:23:23;7.27;;;5.27;;
14094;SDS011;18096;48.142;16.290;2023-06-10T14:25:50;5.38;;;4.97;;
14094;SDS011;18096;48.142;16.290;2023-06-10T14:28:16;5.43;;;4.85;;
14094;SDS011;18096;48.142;16.290;2023-06-10T14:30:41;5.70;;;4.83;;
14094;SDS011;18096;48.142;16.290;2023-06-10T14:33:07;5.63;;;4.53;;
14094;SDS011;18096;48.142;16.290;2023-06-10T14:35:32;6.18;;;5.57;;
14094;SDS011;18096;48.142;16.290;2023-06-10T14:37:58;5.80;;;4.70;;
14094;SDS011;18096;48.142;16.290;2023-06-10T14:40:24;5.53;;;4.90;;
14094;SDS011;18096;48.142;16.290;2023-06-10T14:42:51;6.18;;;4.88;;
14094;SDS011;18096;48.142;16.290;2023-06-10T14:45:17;5.20;;;4.70;;
14094;SDS011;18096;48.142;16.290;2023-06-10T14:47:42;6.00;;;4.80;;
14094;SDS011;18096;48.142;16.290;2023-06-10T14:50:08;5.77;;;5.13;;
14094;SDS011;18096;48.142;16.290;2023-06-10T14:52:34;5.53;;;4.88;;
14094;SDS011;18096;48.142;16.290;2023-06-10T14:55:00;5.95;;;5.30;;
14094;SDS011;18096;48.142;16.290;2023-06-10T14:57:25;7.47;;;5.57;;
14094;SDS011;18096;48.142;16.290;2023-06-10T14:59:51;6.97;;;5.27;;
14094;SDS011;18096;48.142;16.290;2023-06-10T15:02:16;5.90;;;5.30;;
14094;SDS011;18096;48.142;16.290;2023-06-10T15:04:42;5.60;;;5.00;;